createdAt,value
2023-08-04T00:01:04.036Z,59.42
2023-08-04T00:03:32.097Z,59.47
2023-08-04T00:06:00.190Z,59.91
2023-08-04T00:08:29.886Z,59.70
2023-08-04T00:10:59.935Z,59.46
2023-08-04T00:13:30.658Z,59.72
2023-08-04T00:16:06.721Z,59.46
2023-08-04T00:18:36.751Z,59.20
2023-08-04T00:21:04.971Z,59.61
2023-08-04T00:23:34.631Z,59.38
2023-08-04T00:26:05.056Z,59.86
2023-08-04T00:28:33.307Z,59.46
2023-08-04T01:10:33.698Z,59.95
2023-08-04T01:13:04.825Z,59.83
2023-08-04T02:06:31.915Z,60.33
2023-08-04T02:08:59.784Z,60.16
2023-08-04T02:11:28.274Z,60.31
2023-08-04T02:13:56.387Z,60.44
2023-08-04T02:52:11.214Z,60.21
2023-08-04T02:54:41.227Z,59.95
2023-08-04T02:57:09.613Z,59.98
2023-08-04T03:58:43.347Z,59.66
2023-08-04T04:01:11.679Z,59.61
2023-08-04T04:03:39.934Z,59.74
2023-08-04T04:06:08.195Z,59.44
2023-08-04T04:08:36.311Z,59.40
2023-08-04T04:11:04.524Z,59.77
2023-08-04T04:13:32.664Z,59.87
2023-08-04T04:16:02.376Z,59.98
2023-08-04T04:18:30.846Z,59.59
2023-08-04T04:20:58.868Z,59.29
2023-08-04T04:23:27.056Z,59.82
2023-08-04T04:25:55.155Z,59.71
2023-08-04T04:28:23.140Z,59.99
2023-08-04T04:30:51.762Z,59.67
2023-08-04T04:33:23.621Z,59.89
2023-08-04T04:35:51.958Z,59.71
2023-08-04T04:38:20.125Z,59.51
2023-08-04T04:40:56.383Z,60.18
2023-08-04T04:43:24.450Z,59.38
2023-08-04T04:45:52.954Z,59.88
2023-08-04T04:48:22.774Z,60.05
2023-08-04T04:50:54.241Z,60.02
2023-08-04T04:53:22.402Z,60.05
2023-08-04T04:55:50.505Z,59.98
2023-08-04T04:58:18.526Z,59.83
2023-08-04T05:00:46.640Z,59.72
2023-08-04T05:03:16.679Z,60.12
2023-08-04T05:05:46.932Z,60.16
2023-08-04T05:08:14.045Z,60.25
2023-08-04T05:10:42.179Z,59.91
2023-08-04T05:13:10.222Z,59.82
2023-08-04T08:38:46.552Z,59.32
2023-08-04T08:41:16.265Z,59.27
2023-08-04T08:43:46.625Z,59.59
2023-08-04T08:46:18.377Z,59.25
2023-08-04T08:48:49.218Z,59.15
2023-08-04T08:51:21.585Z,59.39
2023-08-04T08:53:49.722Z,59.43
2023-08-04T08:56:22.904Z,59.65
2023-08-04T08:58:51.073Z,59.30
2023-08-04T09:01:20.195Z,59.11
2023-08-04T09:03:48.495Z,58.95
2023-08-04T09:06:16.676Z,59.62
2023-08-04T09:08:44.831Z,59.92
2023-08-04T09:11:13.518Z,59.59
2023-08-04T09:13:46.995Z,59.29
2023-08-04T09:16:16.892Z,59.69
2023-08-04T09:18:45.233Z,59.35
2023-08-04T09:21:19.624Z,59.29
2023-08-04T09:23:54.567Z,59.42
2023-08-04T09:26:22.825Z,59.22
2023-08-04T09:28:56.483Z,59.15
2023-08-04T09:31:24.791Z,59.22
2023-08-04T09:33:53.096Z,59.38
2023-08-04T09:36:24.097Z,58.85
2023-08-04T09:38:53.245Z,58.88
2023-08-04T09:41:53.208Z,58.59
2023-08-04T09:44:22.858Z,58.60
2023-08-04T09:46:53.948Z,59.33
2023-08-04T09:49:22.177Z,59.60
2023-08-04T09:51:55.272Z,59.25
2023-08-04T09:54:26.650Z,59.62
2023-08-04T09:59:52.732Z,59.19
2023-08-04T10:02:21.870Z,59.37
2023-08-04T10:04:51.431Z,59.39
2023-08-04T10:07:19.859Z,59.46
2023-08-04T10:09:48.680Z,59.21
2023-08-04T10:12:19.160Z,59.32
2023-08-04T10:14:47.279Z,59.39
2023-08-04T10:17:17.157Z,59.23
2023-08-04T10:19:45.468Z,59.23
2023-08-04T10:22:13.646Z,58.83
2023-08-04T10:24:43.000Z,57.98
2023-08-04T10:27:15.751Z,58.75
2023-08-04T10:29:49.259Z,58.78
2023-08-04T10:32:20.397Z,58.96
2023-08-04T10:34:52.300Z,59.08
2023-08-04T10:37:20.384Z,59.19
2023-08-04T10:39:52.126Z,59.08
2023-08-04T10:42:25.469Z,59.22
2023-08-04T10:44:54.592Z,58.82
2023-08-04T10:47:34.624Z,58.67
2023-08-04T10:50:13.882Z,58.85
2023-08-04T10:56:50.318Z,58.70
2023-08-04T10:59:29.011Z,58.84
2023-08-04T11:02:16.373Z,59.30
2023-08-04T11:04:53.725Z,58.62
2023-08-04T11:07:23.536Z,59.15
2023-08-04T11:09:52.384Z,59.52
2023-08-04T11:12:20.859Z,58.87
2023-08-04T11:14:51.080Z,58.81
2023-08-04T11:17:22.009Z,58.95
2023-08-04T11:19:56.574Z,59.33
2023-08-04T11:22:25.538Z,59.33
2023-08-04T11:25:05.480Z,59.49
2023-08-04T11:27:39.087Z,59.38
2023-08-04T11:30:15.078Z,59.53
2023-08-04T11:32:48.406Z,59.32
2023-08-04T11:36:04.028Z,59.56
2023-08-04T11:38:52.714Z,58.98
2023-08-04T11:41:22.918Z,59.71
2023-08-04T11:44:09.102Z,58.77
2023-08-04T11:46:41.017Z,59.56
2023-08-04T11:49:17.519Z,59.15
2023-08-04T11:51:58.767Z,58.63
2023-08-04T11:58:14.872Z,59.06
2023-08-04T12:00:48.204Z,58.63
2023-08-04T12:03:19.467Z,59.37
2023-08-04T12:05:50.972Z,58.61
2023-08-04T12:08:19.648Z,59.14
2023-08-04T12:10:48.475Z,59.08
2023-08-04T12:13:40.003Z,59.41
2023-08-04T12:16:23.495Z,59.33
2023-08-04T12:18:52.618Z,59.27
2023-08-04T12:21:40.967Z,59.30
2023-08-04T12:24:16.196Z,59.29
2023-08-04T12:26:53.643Z,59.05
2023-08-04T12:29:24.100Z,59.49
2023-08-04T12:31:58.944Z,59.11
2023-08-04T12:34:28.511Z,59.20
2023-08-04T12:36:57.343Z,58.98
2023-08-04T12:39:26.739Z,59.46
2023-08-04T12:41:55.422Z,58.71
2023-08-04T12:44:25.238Z,59.39
2023-08-04T12:47:21.394Z,58.54
2023-08-04T12:49:50.092Z,58.13
2023-08-04T12:52:24.130Z,58.35
2023-08-04T12:54:52.812Z,58.79
2023-08-04T12:57:21.032Z,58.35
2023-08-04T12:59:50.741Z,58.10
2023-08-04T13:02:21.733Z,58.09
2023-08-04T13:04:50.164Z,58.15
2023-08-04T13:07:18.589Z,57.97
2023-08-04T13:09:46.845Z,58.08
2023-08-04T13:12:14.915Z,57.88
2023-08-04T13:14:48.054Z,57.96
2023-08-04T13:17:26.223Z,58.28
2023-08-04T13:19:53.704Z,58.21
2023-08-04T13:22:21.948Z,57.62
2023-08-04T13:24:50.869Z,57.80
2023-08-04T13:27:19.234Z,57.79
2023-08-04T13:29:50.750Z,58.13
2023-08-04T13:32:20.603Z,58.27
2023-08-04T13:34:55.582Z,58.29
2023-08-04T13:37:26.577Z,58.00
2023-08-04T13:39:56.065Z,58.50
2023-08-04T13:42:24.384Z,58.43
2023-08-04T13:44:57.684Z,57.83
2023-08-04T13:47:29.180Z,58.25
2023-08-04T13:49:57.919Z,58.12
2023-08-04T13:52:26.294Z,58.48
2023-08-04T13:55:02.505Z,57.61
2023-08-04T13:57:41.008Z,57.59
2023-08-04T14:00:10.566Z,57.50
2023-08-04T14:02:46.761Z,57.65
2023-08-04T14:05:14.858Z,57.97
2023-08-04T14:07:43.853Z,58.54
2023-08-04T14:10:14.728Z,58.37
2023-08-04T14:12:45.897Z,58.05
2023-08-04T14:15:14.188Z,57.38
2023-08-04T14:17:43.834Z,58.04
2023-08-04T14:20:17.489Z,57.94
2023-08-04T14:22:45.887Z,57.80
2023-08-04T14:25:16.169Z,58.27
2023-08-04T14:27:47.438Z,57.82
2023-08-04T14:30:22.235Z,57.50
2023-08-04T14:32:54.345Z,58.20
2023-08-04T14:35:22.795Z,58.11
2023-08-04T14:37:51.039Z,58.08
2023-08-04T14:40:23.511Z,58.25
2023-08-04T14:42:51.866Z,58.08
2023-08-04T14:45:22.993Z,58.55
2023-08-04T14:47:55.112Z,58.03
2023-08-04T14:50:26.395Z,58.16
2023-08-04T14:52:55.395Z,58.10
2023-08-04T14:55:23.407Z,58.25
2023-08-04T14:57:51.718Z,57.98
2023-08-04T15:00:22.976Z,58.17
2023-08-04T15:02:51.129Z,58.16
2023-08-04T15:05:21.397Z,56.93
2023-08-04T15:07:49.996Z,56.84
2023-08-04T15:10:18.522Z,57.22
2023-08-04T15:12:46.769Z,55.72
2023-08-04T15:15:26.347Z,55.40
2023-08-04T15:17:57.781Z,56.01
2023-08-04T15:20:27.463Z,55.77
2023-08-04T15:22:55.643Z,56.67
2023-08-04T15:25:23.880Z,56.66
2023-08-04T15:27:51.960Z,56.97
2023-08-04T15:30:20.009Z,56.91
2023-08-04T15:32:50.983Z,56.80
2023-08-04T15:35:22.843Z,57.21
2023-08-04T15:37:52.468Z,57.32
2023-08-04T15:40:21.001Z,57.27
2023-08-04T15:42:49.250Z,57.68
2023-08-04T15:45:19.392Z,57.22
2023-08-04T15:47:47.932Z,57.03
2023-08-04T15:50:16.069Z,56.81
2023-08-04T15:52:44.113Z,57.17
2023-08-04T15:55:14.018Z,56.76
2023-08-04T15:57:42.275Z,57.16
2023-08-04T16:00:10.928Z,56.80
2023-08-04T16:02:39.012Z,56.86
2023-08-04T16:05:08.187Z,57.06
2023-08-04T16:07:36.349Z,56.99
2023-08-04T16:10:04.567Z,57.37
2023-08-04T16:12:35.338Z,57.40
2023-08-04T16:15:05.269Z,57.64
2023-08-04T16:17:34.665Z,57.32
2023-08-04T16:20:03.187Z,56.88
2023-08-04T16:22:31.294Z,57.13
2023-08-04T16:28:18.936Z,57.42
2023-08-04T16:29:06.393Z,57.32
2023-08-04T16:31:35.850Z,57.42
2023-08-04T16:34:04.623Z,55.43
2023-08-04T16:36:33.145Z,54.75
2023-08-04T16:39:01.178Z,54.54
2023-08-04T16:41:29.189Z,53.82
2023-08-04T16:44:39.674Z,53.47
2023-08-04T16:47:25.723Z,54.97
2023-08-04T16:50:29.987Z,55.74
2023-08-04T16:53:15.989Z,56.83
2023-08-04T17:07:07.272Z,57.17
2023-08-04T17:09:36.813Z,57.56
2023-08-04T17:12:09.578Z,57.23
2023-08-04T17:14:37.649Z,56.46
2023-08-04T17:17:05.842Z,55.66
2023-08-04T17:19:36.690Z,56.53
2023-08-04T17:22:04.822Z,56.63
2023-08-04T17:24:32.908Z,55.68
2023-08-04T17:27:02.381Z,57.09
2023-08-04T17:29:33.339Z,56.75
2023-08-04T17:32:01.383Z,56.87
2023-08-04T17:34:29.904Z,57.22
2023-08-04T17:37:00.198Z,57.28
2023-08-04T17:39:28.440Z,56.83
2023-08-04T17:41:57.752Z,57.08
2023-08-04T17:44:28.506Z,57.04
2023-08-04T17:46:56.633Z,57.29
2023-08-04T17:49:26.655Z,56.91
2023-08-04T17:51:54.963Z,57.17
2023-08-04T17:54:23.077Z,57.20
2023-08-04T17:56:51.597Z,57.54
2023-08-04T17:59:23.121Z,57.57
2023-08-04T18:01:55.688Z,57.51
2023-08-04T18:04:24.623Z,57.59
2023-08-04T18:06:55.500Z,57.91
2023-08-04T18:09:23.772Z,57.23
2023-08-04T18:11:52.113Z,57.18
2023-08-04T18:17:37.630Z,57.54
2023-08-04T18:20:25.602Z,57.29
2023-08-04T18:23:52.241Z,57.24
2023-08-04T18:26:45.312Z,57.43
2023-08-04T18:29:16.541Z,57.35
2023-08-04T18:31:49.511Z,57.32
2023-08-04T18:34:24.147Z,57.25
2023-08-04T18:37:15.631Z,57.31
2023-08-04T18:39:51.365Z,57.24
2023-08-04T18:42:19.624Z,57.26
2023-08-04T18:44:49.616Z,57.19
2023-08-04T18:47:17.793Z,57.23
2023-08-04T18:49:47.056Z,57.30
2023-08-04T18:52:15.384Z,57.30
2023-08-04T18:54:46.752Z,57.25
2023-08-04T18:57:15.364Z,57.39
2023-08-04T18:59:44.343Z,57.34
2023-08-04T19:02:21.198Z,57.26
2023-08-04T19:04:51.028Z,57.22
2023-08-04T19:07:19.164Z,56.94
2023-08-04T19:09:48.873Z,57.24
2023-08-04T19:12:18.774Z,57.08
2023-08-04T19:14:47.110Z,56.94
2023-08-04T19:17:15.331Z,57.14
2023-08-04T19:19:43.459Z,57.06
2023-08-04T19:22:15.607Z,57.07
2023-08-04T19:24:46.667Z,57.25
2023-08-04T19:27:55.783Z,56.83
2023-08-04T19:39:08.507Z,57.19
2023-08-04T20:36:17.962Z,57.59
2023-08-04T20:40:11.240Z,57.52
2023-08-04T20:54:59.295Z,57.49
2023-08-04T20:57:31.243Z,57.86
2023-08-04T21:00:09.330Z,58.02
2023-08-04T21:02:38.096Z,58.33
2023-08-04T21:05:21.494Z,57.86
2023-08-04T21:08:13.528Z,58.00
2023-08-04T21:14:32.521Z,57.91
2023-08-04T21:17:03.970Z,57.93
2023-08-04T21:19:32.842Z,57.80
2023-08-04T21:22:01.113Z,57.70
2023-08-04T21:24:31.562Z,57.58
2023-08-04T21:27:02.821Z,57.84
2023-08-04T21:29:31.121Z,57.82
2023-08-04T21:31:59.299Z,57.79
2023-08-04T21:34:27.596Z,57.71
2023-08-04T21:36:55.969Z,57.71
2023-08-04T21:39:26.202Z,57.68
2023-08-04T21:41:55.946Z,57.64
2023-08-04T21:44:24.017Z,57.53
2023-08-04T21:46:53.612Z,57.70
2023-08-04T21:49:21.988Z,57.64
2023-08-04T21:52:03.174Z,57.66
2023-08-04T21:54:31.423Z,57.37
2023-08-04T21:57:04.263Z,57.69
2023-08-04T21:59:33.234Z,57.80
2023-08-04T22:02:01.502Z,57.78
2023-08-04T22:04:32.188Z,57.59
2023-08-04T22:07:02.889Z,57.41
2023-08-04T22:09:33.280Z,58.19
2023-08-04T22:12:02.307Z,57.97
2023-08-04T22:14:32.264Z,57.87
2023-08-04T22:17:00.689Z,57.99
2023-08-04T22:19:29.252Z,57.72
2023-08-04T22:22:00.209Z,57.65
2023-08-04T22:24:28.557Z,58.09
2023-08-04T22:26:57.479Z,57.60
2023-08-04T22:29:25.874Z,57.98
2023-08-04T22:32:06.176Z,57.63
2023-08-04T22:34:37.862Z,58.00
2023-08-04T22:37:07.783Z,57.74
2023-08-04T22:39:36.108Z,57.96
2023-08-04T22:42:06.519Z,57.85
2023-08-04T22:44:38.293Z,57.90
2023-08-04T22:47:09.642Z,57.94
2023-08-04T22:49:37.811Z,57.76
2023-08-04T22:52:06.668Z,57.65
2023-08-04T22:54:35.460Z,57.93
2023-08-04T22:57:06.995Z,58.05
2023-08-04T22:59:40.968Z,57.88
2023-08-04T23:02:13.522Z,57.81
2023-08-04T23:04:42.058Z,58.08
2023-08-04T23:07:13.634Z,57.94
2023-08-04T23:09:47.525Z,57.79
2023-08-04T23:12:15.587Z,57.69
2023-08-04T23:14:43.967Z,58.00
2023-08-04T23:31:49.699Z,57.81
2023-08-04T23:34:17.664Z,58.19
2023-08-04T23:36:49.196Z,57.84
2023-08-04T23:39:17.609Z,58.06
2023-08-04T23:41:48.003Z,57.95
2023-08-04T23:44:20.688Z,57.83
2023-08-04T23:46:50.438Z,57.96
2023-08-04T23:49:18.581Z,58.04
2023-08-04T23:51:47.792Z,57.83
2023-08-04T23:54:15.872Z,57.76
2023-08-04T23:56:43.814Z,58.04
2023-08-04T23:59:11.751Z,57.91
